»·PEaware :: N2442P O60-KSAC

N2442P :: O60-KSAC

FLIGHT INFORMATION

Flight Status: Arrived
Operator: Privately registered:
United States
More flights under this callsign
Pilot: Ken Q. (14290)
Aircraft: MOONEY M-20K/M ENCORE BRAVO
(M20T)
More flights by this aircraft type
Origin: O60 Cloverdale Mun
United States
Destination: KSAC Sacramento Executive
United States
More flights between these airports :: More routes between these airports
Route: O60 SAC KSAC
File this flight plan on PilotEdge
Remarks: X
Altitude:
(Current/Filed)
7,500ft
Speed:
(Current/Filed)
175kts
Departed: 14-Apr-19 11:25 AM
Arrived: 14-Apr-19 11:58 AM
Distance/Time
Traveled:
72nm/0:33
Distance/Time
To Go:
Arrived

Flight Plot

Page will automatically refresh every two minutes.

Flight plan parsing failed; only flown route is shown


Map Options




Map Legend


Flown Route
Filed Route
Departure Airport
Arrival Airport
Navaid (VOR, NDB)
Fix

Horizontal Profiles

Position Reports

Time Latitude Longitude Heading Altitude Ground
Speed
14-Apr-19 10:58 38.774600 -122.992869 240 275ft 0kts
14-Apr-19 10:59 38.774600 -122.992869 240 275ft 0kts
14-Apr-19 11:00 38.774600 -122.992869 240 275ft 0kts
14-Apr-19 11:01 38.774600 -122.992869 240 275ft 0kts
14-Apr-19 11:02 38.774600 -122.992869 240 275ft 0kts
14-Apr-19 11:04 38.774600 -122.992869 240 275ft 0kts
14-Apr-19 11:05 38.774600 -122.992869 240 275ft 0kts
14-Apr-19 11:06 38.774600 -122.992869 240 275ft 0kts
14-Apr-19 11:07 38.774600 -122.992869 240 275ft 0kts
14-Apr-19 11:08 38.774600 -122.992869 240 275ft 0kts
14-Apr-19 11:09 38.774600 -122.992869 240 275ft 0kts
14-Apr-19 11:10 38.774600 -122.992869 240 275ft 0kts
14-Apr-19 11:11 38.774600 -122.992869 240 275ft 0kts
14-Apr-19 11:12 38.774600 -122.992869 240 275ft 0kts
14-Apr-19 11:13 38.774600 -122.992870 240 275ft 0kts
14-Apr-19 11:14 38.774600 -122.992870 240 275ft 0kts
14-Apr-19 11:15 38.774599 -122.992871 240 275ft 0kts
14-Apr-19 11:16 38.774599 -122.992871 240 275ft 0kts
14-Apr-19 11:17 38.774599 -122.992872 240 275ft 0kts
14-Apr-19 11:18 38.774462 -122.992885 146 275ft 3kts
14-Apr-19 11:19 38.774380 -122.992817 145 275ft 0kts
14-Apr-19 11:20 38.774569 -122.992513 37 275ft 8kts
14-Apr-19 11:21 38.778097 -122.994440 333 275ft 15kts
14-Apr-19 11:22 38.779305 -122.995374 181 275ft 0kts
14-Apr-19 11:23 38.779298 -122.995374 181 275ft 0kts
14-Apr-19 11:24 38.779185 -122.994525 151 275ft 18kts
14-Apr-19 11:24 38.765352 -122.984224 150 491ft 94kts
14-Apr-19 11:26 38.745344 -122.953430 112 1291ft 116kts
14-Apr-19 11:27 38.733192 -122.914840 112 2194ft 119kts
14-Apr-19 11:28 38.720789 -122.875672 112 3056ft 119kts
14-Apr-19 11:29 38.707830 -122.835557 112 3864ft 123kts
14-Apr-19 11:29 38.696490 -122.800511 112 4452ft 135kts
14-Apr-19 11:31 38.679869 -122.749276 112 5133ft 148kts
14-Apr-19 11:31 38.667645 -122.708075 105 5617ft 150kts
14-Apr-19 11:32 38.656482 -122.655938 104 6119ft 151kts
14-Apr-19 11:34 38.643792 -122.595900 104 6693ft 148kts
14-Apr-19 11:34 38.634930 -122.553162 104 7111ft 150kts
14-Apr-19 11:36 38.622431 -122.491859 104 7545ft 159kts
14-Apr-19 11:36 38.612654 -122.443467 105 7554ft 176kts
14-Apr-19 11:37 38.600053 -122.380977 104 7555ft 185kts
14-Apr-19 11:38 38.587243 -122.317401 105 7391ft 186kts
14-Apr-19 11:39 38.573928 -122.251497 105 6899ft 194kts
14-Apr-19 11:40 38.560323 -122.184604 104 6399ft 193kts
14-Apr-19 11:41 38.546780 -122.118363 105 5899ft 191kts
14-Apr-19 11:42 38.533642 -122.053093 105 5397ft 188kts
14-Apr-19 11:43 38.521012 -121.988528 105 4894ft 185kts
14-Apr-19 11:44 38.509480 -121.925360 105 4391ft 178kts
14-Apr-19 11:45 38.499186 -121.862749 103 3893ft 181kts
14-Apr-19 11:46 38.490434 -121.800951 103 3386ft 171kts
14-Apr-19 11:47 38.482532 -121.741535 103 2884ft 168kts
14-Apr-19 11:48 38.474826 -121.682955 103 2385ft 166kts
14-Apr-19 11:49 38.467279 -121.625935 102 1879ft 160kts
14-Apr-19 11:50 38.470331 -121.573867 52 1523ft 146kts
14-Apr-19 11:51 38.497634 -121.541966 39 1196ft 127kts
14-Apr-19 11:52 38.525086 -121.517744 27 963ft 111kts
14-Apr-19 11:53 38.552096 -121.498458 27 784ft 106kts
14-Apr-19 11:54 38.551540 -121.471267 132 634ft 83kts
14-Apr-19 11:55 38.533142 -121.477282 214 426ft 69kts
14-Apr-19 11:56 38.518365 -121.489758 212 39ft 58kts
14-Apr-19 11:57 38.513618 -121.495028 273 27ft 3kts
14-Apr-19 11:58 38.514024 -121.497169 295 27ft 5kts
14-Apr-19 11:59 38.514263 -121.497990 220 27ft 0kts

Navigation Log

Ident Type
Flight plan parsing failed, navigation log unavailable